sensor_id;sensor_type;location;lat;lon;timestamp;temperature;humidity
12329;DHT22;6230;52.390;10.256;2023-04-10T00:02:25;11.20;63.40
12329;DHT22;6230;52.390;10.256;2023-04-10T00:04:50;11.20;63.30
12329;DHT22;6230;52.390;10.256;2023-04-10T00:07:16;11.20;63.30
12329;DHT22;6230;52.390;10.256;2023-04-10T00:09:42;11.20;63.30
12329;DHT22;6230;52.390;10.256;2023-04-10T00:12:07;11.10;63.30
12329;DHT22;6230;52.390;10.256;2023-04-10T00:14:35;11.20;63.30
12329;DHT22;6230;52.390;10.256;2023-04-10T00:17:01;11.10;63.20
12329;DHT22;6230;52.390;10.256;2023-04-10T00:19:26;11.10;63.30
12329;DHT22;6230;52.390;10.256;2023-04-10T00:21:52;11.10;63.20
12329;DHT22;6230;52.390;10.256;2023-04-10T00:24:17;11.10;63.20
12329;DHT22;6230;52.390;10.256;2023-04-10T00:26:43;11.10;63.00
12329;DHT22;6230;52.390;10.256;2023-04-10T00:29:08;11.10;62.90
12329;DHT22;6230;52.390;10.256;2023-04-10T00:31:34;11.10;62.80
12329;DHT22;6230;52.390;10.256;2023-04-10T00:33:59;11.20;62.70
12329;DHT22;6230;52.390;10.256;2023-04-10T00:36:25;11.20;62.60
12329;DHT22;6230;52.390;10.256;2023-04-10T00:38:52;11.20;62.50
12329;DHT22;6230;52.390;10.256;2023-04-10T00:41:17;11.20;62.30
12329;DHT22;6230;52.390;10.256;2023-04-10T00:43:44;11.20;62.30
12329;DHT22;6230;52.390;10.256;2023-04-10T00:46:10;11.20;62.20
12329;DHT22;6230;52.390;10.256;2023-04-10T00:48:36;11.10;62.20
12329;DHT22;6230;52.390;10.256;2023-04-10T00:51:02;11.20;62.20
12329;DHT22;6230;52.390;10.256;2023-04-10T00:53:28;11.10;62.20
12329;DHT22;6230;52.390;10.256;2023-04-10T00:55:54;11.10;62.30
12329;DHT22;6230;52.390;10.256;2023-04-10T00:58:20;11.00;62.30
12329;DHT22;6230;52.390;10.256;2023-04-10T01:00:46;11.00;62.40
12329;DHT22;6230;52.390;10.256;2023-04-10T01:03:15;10.90;62.40
12329;DHT22;6230;52.390;10.256;2023-04-10T01:06:04;10.90;62.50
12329;DHT22;6230;52.390;10.256;2023-04-10T01:11:26;10.90;62.50
12329;DHT22;6230;52.390;10.256;2023-04-10T01:14:15;10.80;62.50
12329;DHT22;6230;52.390;10.256;2023-04-10T01:16:54;10.80;62.60
12329;DHT22;6230;52.390;10.256;2023-04-10T01:19:25;10.70;62.50
12329;DHT22;6230;52.390;10.256;2023-04-10T01:21:53;10.70;62.50
12329;DHT22;6230;52.390;10.256;2023-04-10T01:24:30;10.70;62.60
12329;DHT22;6230;52.390;10.256;2023-04-10T01:29:47;10.70;62.50
12329;DHT22;6230;52.390;10.256;2023-04-10T01:32:19;10.70;62.40
12329;DHT22;6230;52.390;10.256;2023-04-10T01:34:48;10.70;62.30
12329;DHT22;6230;52.390;10.256;2023-04-10T01:37:24;10.70;62.50
12329;DHT22;6230;52.390;10.256;2023-04-10T01:39:58;10.70;62.20
12329;DHT22;6230;52.390;10.256;2023-04-10T01:42:27;10.70;62.20
12329;DHT22;6230;52.390;10.256;2023-04-10T01:44:56;10.70;62.10
12329;DHT22;6230;52.390;10.256;2023-04-10T01:47:24;10.70;62.10
12329;DHT22;6230;52.390;10.256;2023-04-10T01:49:51;10.70;62.10
12329;DHT22;6230;52.390;10.256;2023-04-10T01:52:18;10.70;62.10
12329;DHT22;6230;52.390;10.256;2023-04-10T01:54:45;10.70;62.10
12329;DHT22;6230;52.390;10.256;2023-04-10T01:57:13;10.60;62.10
12329;DHT22;6230;52.390;10.256;2023-04-10T01:59:39;10.60;62.20
12329;DHT22;6230;52.390;10.256;2023-04-10T02:02:05;10.50;62.20
12329;DHT22;6230;52.390;10.256;2023-04-10T02:04:35;10.50;62.30
12329;DHT22;6230;52.390;10.256;2023-04-10T02:07:03;10.40;62.30
12329;DHT22;6230;52.390;10.256;2023-04-10T02:09:53;10.40;62.30
12329;DHT22;6230;52.390;10.256;2023-04-10T02:12:28;10.40;62.60
12329;DHT22;6230;52.390;10.256;2023-04-10T02:14:58;10.30;62.50
12329;DHT22;6230;52.390;10.256;2023-04-10T02:17:28;10.30;62.60
12329;DHT22;6230;52.390;10.256;2023-04-10T02:19:57;10.20;62.70
12329;DHT22;6230;52.390;10.256;2023-04-10T02:22:24;10.20;62.80
12329;DHT22;6230;52.390;10.256;2023-04-10T02:24:51;10.20;63.00
12329;DHT22;6230;52.390;10.256;2023-04-10T02:27:31;10.10;63.00
12329;DHT22;6230;52.390;10.256;2023-04-10T02:29:57;10.10;63.20
12329;DHT22;6230;52.390;10.256;2023-04-10T02:32:23;10.10;63.10
12329;DHT22;6230;52.390;10.256;2023-04-10T02:34:48;10.10;63.20
12329;DHT22;6230;52.390;10.256;2023-04-10T02:37:14;10.00;63.70
12329;DHT22;6230;52.390;10.256;2023-04-10T02:39:39;10.00;63.20
12329;DHT22;6230;52.390;10.256;2023-04-10T02:42:06;10.00;63.30
12329;DHT22;6230;52.390;10.256;2023-04-10T02:44:31;10.00;63.20
12329;DHT22;6230;52.390;10.256;2023-04-10T02:46:56;10.10;63.20
12329;DHT22;6230;52.390;10.256;2023-04-10T02:49:22;10.10;63.20
12329;DHT22;6230;52.390;10.256;2023-04-10T02:51:47;10.10;63.10
12329;DHT22;6230;52.390;10.256;2023-04-10T02:54:13;10.00;63.10
12329;DHT22;6230;52.390;10.256;2023-04-10T02:56:38;10.00;63.10
12329;DHT22;6230;52.390;10.256;2023-04-10T02:59:04;10.00;63.10
12329;DHT22;6230;52.390;10.256;2023-04-10T03:01:30;9.90;63.20
12329;DHT22;6230;52.390;10.256;2023-04-10T03:03:56;9.90;63.30
12329;DHT22;6230;52.390;10.256;2023-04-10T03:06:22;9.90;63.50
12329;DHT22;6230;52.390;10.256;2023-04-10T03:08:51;9.80;63.50
12329;DHT22;6230;52.390;10.256;2023-04-10T03:11:17;9.80;63.60
12329;DHT22;6230;52.390;10.256;2023-04-10T03:13:42;9.80;63.70
12329;DHT22;6230;52.390;10.256;2023-04-10T03:16:08;9.70;63.70
12329;DHT22;6230;52.390;10.256;2023-04-10T03:18:33;9.70;63.80
12329;DHT22;6230;52.390;10.256;2023-04-10T03:20:59;9.70;63.90
12329;DHT22;6230;52.390;10.256;2023-04-10T03:23:26;9.60;63.90
12329;DHT22;6230;52.390;10.256;2023-04-10T03:25:52;9.60;64.00
12329;DHT22;6230;52.390;10.256;2023-04-10T03:28:22;9.60;64.10
12329;DHT22;6230;52.390;10.256;2023-04-10T03:30:48;9.60;64.20
12329;DHT22;6230;52.390;10.256;2023-04-10T03:33:14;9.60;64.20
12329;DHT22;6230;52.390;10.256;2023-04-10T03:35:40;9.50;64.10
12329;DHT22;6230;52.390;10.256;2023-04-10T03:38:06;9.50;64.20
12329;DHT22;6230;52.390;10.256;2023-04-10T03:40:32;9.50;64.20
12329;DHT22;6230;52.390;10.256;2023-04-10T03:42:59;9.50;64.30
12329;DHT22;6230;52.390;10.256;2023-04-10T03:45:24;9.50;64.30
12329;DHT22;6230;52.390;10.256;2023-04-10T03:47:51;9.50;64.40
12329;DHT22;6230;52.390;10.256;2023-04-10T03:50:17;9.50;64.40
12329;DHT22;6230;52.390;10.256;2023-04-10T03:52:43;9.40;64.40
12329;DHT22;6230;52.390;10.256;2023-04-10T03:55:09;9.40;64.50
12329;DHT22;6230;52.390;10.256;2023-04-10T03:57:34;9.40;64.40
12329;DHT22;6230;52.390;10.256;2023-04-10T04:00:00;9.40;64.40
12329;DHT22;6230;52.390;10.256;2023-04-10T04:02:26;9.40;64.40
12329;DHT22;6230;52.390;10.256;2023-04-10T04:04:51;9.40;64.90
12329;DHT22;6230;52.390;10.256;2023-04-10T04:07:17;9.40;64.50
12329;DHT22;6230;52.390;10.256;2023-04-10T04:09:43;9.40;64.50
12329;DHT22;6230;52.390;10.256;2023-04-10T04:12:08;9.40;64.50
12329;DHT22;6230;52.390;10.256;2023-04-10T04:14:34;9.40;64.50
12329;DHT22;6230;52.390;10.256;2023-04-10T04:16:59;9.40;64.60
12329;DHT22;6230;52.390;10.256;2023-04-10T04:19:25;9.40;64.60
12329;DHT22;6230;52.390;10.256;2023-04-10T04:21:51;9.40;64.60
12329;DHT22;6230;52.390;10.256;2023-04-10T04:24:16;9.40;64.70
12329;DHT22;6230;52.390;10.256;2023-04-10T04:26:42;9.30;64.70
12329;DHT22;6230;52.390;10.256;2023-04-10T04:29:07;9.30;64.80
12329;DHT22;6230;52.390;10.256;2023-04-10T04:31:33;9.30;64.90
12329;DHT22;6230;52.390;10.256;2023-04-10T04:33:59;9.30;65.00
12329;DHT22;6230;52.390;10.256;2023-04-10T04:36:25;9.30;65.10
12329;DHT22;6230;52.390;10.256;2023-04-10T04:38:52;9.20;65.10
12329;DHT22;6230;52.390;10.256;2023-04-10T04:41:17;9.30;65.20
12329;DHT22;6230;52.390;10.256;2023-04-10T04:43:44;9.20;65.30
12329;DHT22;6230;52.390;10.256;2023-04-10T04:46:11;9.20;65.30
12329;DHT22;6230;52.390;10.256;2023-04-10T04:48:37;9.20;65.40
12329;DHT22;6230;52.390;10.256;2023-04-10T04:51:05;9.20;65.50
12329;DHT22;6230;52.390;10.256;2023-04-10T04:53:30;9.20;65.70
12329;DHT22;6230;52.390;10.256;2023-04-10T04:55:56;9.20;65.80
12329;DHT22;6230;52.390;10.256;2023-04-10T04:58:21;9.20;65.70
12329;DHT22;6230;52.390;10.256;2023-04-10T05:00:50;9.20;65.70
12329;DHT22;6230;52.390;10.256;2023-04-10T05:03:15;9.20;65.70
12329;DHT22;6230;52.390;10.256;2023-04-10T05:05:41;9.20;65.70
12329;DHT22;6230;52.390;10.256;2023-04-10T05:08:07;9.10;65.60
12329;DHT22;6230;52.390;10.256;2023-04-10T05:10:32;9.20;65.80
12329;DHT22;6230;52.390;10.256;2023-04-10T05:12:58;9.20;65.80
12329;DHT22;6230;52.390;10.256;2023-04-10T05:15:23;9.20;66.00
12329;DHT22;6230;52.390;10.256;2023-04-10T05:17:49;9.20;66.00
12329;DHT22;6230;52.390;10.256;2023-04-10T05:20:18;9.10;66.00
12329;DHT22;6230;52.390;10.256;2023-04-10T05:22:44;9.20;66.10
12329;DHT22;6230;52.390;10.256;2023-04-10T05:25:10;9.20;66.10
12329;DHT22;6230;52.390;10.256;2023-04-10T05:27:36;9.20;66.20
12329;DHT22;6230;52.390;10.256;2023-04-10T05:30:01;9.20;66.30
12329;DHT22;6230;52.390;10.256;2023-04-10T05:32:28;9.30;66.30
12329;DHT22;6230;52.390;10.256;2023-04-10T05:34:53;9.30;66.30
12329;DHT22;6230;52.390;10.256;2023-04-10T05:37:19;9.30;66.30
12329;DHT22;6230;52.390;10.256;2023-04-10T05:39:44;9.40;66.40
12329;DHT22;6230;52.390;10.256;2023-04-10T05:42:10;9.40;66.40
12329;DHT22;6230;52.390;10.256;2023-04-10T05:44:36;9.40;66.30
12329;DHT22;6230;52.390;10.256;2023-04-10T05:47:01;9.40;66.30
12329;DHT22;6230;52.390;10.256;2023-04-10T05:49:27;9.50;66.30
12329;DHT22;6230;52.390;10.256;2023-04-10T05:51:52;9.50;66.30
12329;DHT22;6230;52.390;10.256;2023-04-10T05:54:18;9.60;66.40
12329;DHT22;6230;52.390;10.256;2023-04-10T05:56:43;9.60;66.30
12329;DHT22;6230;52.390;10.256;2023-04-10T05:59:09;9.60;66.20
12329;DHT22;6230;52.390;10.256;2023-04-10T06:01:38;9.70;66.20
12329;DHT22;6230;52.390;10.256;2023-04-10T06:04:04;9.80;66.10
12329;DHT22;6230;52.390;10.256;2023-04-10T06:06:30;9.80;66.10
12329;DHT22;6230;52.390;10.256;2023-04-10T06:08:57;9.90;66.00
12329;DHT22;6230;52.390;10.256;2023-04-10T06:11:22;9.90;65.90
12329;DHT22;6230;52.390;10.256;2023-04-10T06:13:48;10.00;65.90
12329;DHT22;6230;52.390;10.256;2023-04-10T06:16:13;10.00;65.80
12329;DHT22;6230;52.390;10.256;2023-04-10T06:18:42;10.10;65.70
12329;DHT22;6230;52.390;10.256;2023-04-10T06:21:08;10.10;65.60
12329;DHT22;6230;52.390;10.256;2023-04-10T06:23:34;10.20;65.60
12329;DHT22;6230;52.390;10.256;2023-04-10T06:26:00;10.20;65.50
12329;DHT22;6230;52.390;10.256;2023-04-10T06:28:26;10.30;65.60
12329;DHT22;6230;52.390;10.256;2023-04-10T06:30:51;10.30;65.40
12329;DHT22;6230;52.390;10.256;2023-04-10T06:33:17;10.40;65.20
12329;DHT22;6230;52.390;10.256;2023-04-10T06:35:42;10.40;65.10
12329;DHT22;6230;52.390;10.256;2023-04-10T06:38:08;10.50;65.00
12329;DHT22;6230;52.390;10.256;2023-04-10T06:40:34;10.60;65.00
12329;DHT22;6230;52.390;10.256;2023-04-10T06:43:00;10.60;64.80
12329;DHT22;6230;52.390;10.256;2023-04-10T06:45:26;10.70;64.70
12329;DHT22;6230;52.390;10.256;2023-04-10T06:47:51;10.70;64.60
12329;DHT22;6230;52.390;10.256;2023-04-10T06:50:17;10.80;64.30
12329;DHT22;6230;52.390;10.256;2023-04-10T06:52:44;10.90;64.30
12329;DHT22;6230;52.390;10.256;2023-04-10T06:55:10;10.90;64.10
12329;DHT22;6230;52.390;10.256;2023-04-10T06:57:37;11.00;64.00
12329;DHT22;6230;52.390;10.256;2023-04-10T07:00:03;11.00;63.90
12329;DHT22;6230;52.390;10.256;2023-04-10T07:02:29;11.10;63.90
12329;DHT22;6230;52.390;10.256;2023-04-10T07:04:54;11.20;63.70
12329;DHT22;6230;52.390;10.256;2023-04-10T07:07:21;11.30;63.50
12329;DHT22;6230;52.390;10.256;2023-04-10T07:09:46;11.30;62.90
12329;DHT22;6230;52.390;10.256;2023-04-10T07:12:12;11.30;62.60
12329;DHT22;6230;52.390;10.256;2023-04-10T07:14:37;11.40;62.70
12329;DHT22;6230;52.390;10.256;2023-04-10T07:17:03;11.50;62.70
12329;DHT22;6230;52.390;10.256;2023-04-10T07:19:29;11.50;62.50
12329;DHT22;6230;52.390;10.256;2023-04-10T07:21:54;11.60;62.40
12329;DHT22;6230;52.390;10.256;2023-04-10T07:24:20;11.60;62.10
12329;DHT22;6230;52.390;10.256;2023-04-10T07:26:46;11.70;62.00
12329;DHT22;6230;52.390;10.256;2023-04-10T07:29:12;11.80;62.10
12329;DHT22;6230;52.390;10.256;2023-04-10T07:31:38;11.90;61.90
12329;DHT22;6230;52.390;10.256;2023-04-10T07:34:04;12.00;61.70
12329;DHT22;6230;52.390;10.256;2023-04-10T07:36:30;12.10;61.50
12329;DHT22;6230;52.390;10.256;2023-04-10T07:38:57;12.20;61.40
12329;DHT22;6230;52.390;10.256;2023-04-10T07:41:22;12.30;61.30
12329;DHT22;6230;52.390;10.256;2023-04-10T07:43:48;12.40;61.10
12329;DHT22;6230;52.390;10.256;2023-04-10T07:46:14;12.50;60.90
12329;DHT22;6230;52.390;10.256;2023-04-10T07:48:40;12.60;60.50
12329;DHT22;6230;52.390;10.256;2023-04-10T07:51:06;12.70;60.40
12329;DHT22;6230;52.390;10.256;2023-04-10T07:53:35;12.70;60.00
12329;DHT22;6230;52.390;10.256;2023-04-10T07:56:01;12.80;59.90
12329;DHT22;6230;52.390;10.256;2023-04-10T07:58:26;13.00;59.80
12329;DHT22;6230;52.390;10.256;2023-04-10T08:00:52;13.10;59.70
12329;DHT22;6230;52.390;10.256;2023-04-10T08:03:17;13.20;59.40
12329;DHT22;6230;52.390;10.256;2023-04-10T08:05:43;13.40;59.30
12329;DHT22;6230;52.390;10.256;2023-04-10T08:08:08;13.50;58.90
12329;DHT22;6230;52.390;10.256;2023-04-10T08:10:37;13.60;58.80
12329;DHT22;6230;52.390;10.256;2023-04-10T08:13:04;13.70;58.40
12329;DHT22;6230;52.390;10.256;2023-04-10T08:15:30;13.80;58.30
12329;DHT22;6230;52.390;10.256;2023-04-10T08:17:55;14.00;58.20
12329;DHT22;6230;52.390;10.256;2023-04-10T08:20:21;14.10;57.60
12329;DHT22;6230;52.390;10.256;2023-04-10T08:22:46;14.20;57.70
12329;DHT22;6230;52.390;10.256;2023-04-10T08:25:12;14.30;57.30
12329;DHT22;6230;52.390;10.256;2023-04-10T08:27:38;14.40;57.00
12329;DHT22;6230;52.390;10.256;2023-04-10T08:30:04;14.50;56.80
12329;DHT22;6230;52.390;10.256;2023-04-10T08:32:29;14.70;56.80
12329;DHT22;6230;52.390;10.256;2023-04-10T08:34:55;14.80;56.20
12329;DHT22;6230;52.390;10.256;2023-04-10T08:37:21;14.90;56.10
12329;DHT22;6230;52.390;10.256;2023-04-10T08:39:46;15.00;55.90
12329;DHT22;6230;52.390;10.256;2023-04-10T08:42:12;15.10;55.30
12329;DHT22;6230;52.390;10.256;2023-04-10T08:44:38;15.20;55.30
12329;DHT22;6230;52.390;10.256;2023-04-10T08:47:07;15.30;55.10
12329;DHT22;6230;52.390;10.256;2023-04-10T08:52:21;15.50;54.80
12329;DHT22;6230;52.390;10.256;2023-04-10T08:54:58;15.60;54.40
12329;DHT22;6230;52.390;10.256;2023-04-10T08:57:24;15.80;53.80
12329;DHT22;6230;52.390;10.256;2023-04-10T08:59:52;15.90;54.00
12329;DHT22;6230;52.390;10.256;2023-04-10T09:02:18;16.00;53.90
12329;DHT22;6230;52.390;10.256;2023-04-10T09:04:51;16.20;53.90
12329;DHT22;6230;52.390;10.256;2023-04-10T09:07:19;16.30;53.50
12329;DHT22;6230;52.390;10.256;2023-04-10T09:09:45;16.40;52.90
12329;DHT22;6230;52.390;10.256;2023-04-10T09:12:15;16.60;52.90
12329;DHT22;6230;52.390;10.256;2023-04-10T09:14:41;16.70;52.00
12329;DHT22;6230;52.390;10.256;2023-04-10T09:17:14;16.70;52.10
12329;DHT22;6230;52.390;10.256;2023-04-10T09:19:41;16.80;50.50
12329;DHT22;6230;52.390;10.256;2023-04-10T09:22:07;16.80;50.50
12329;DHT22;6230;52.390;10.256;2023-04-10T09:24:41;16.90;51.00
12329;DHT22;6230;52.390;10.256;2023-04-10T09:27:07;17.00;50.60
12329;DHT22;6230;52.390;10.256;2023-04-10T09:29:41;17.10;50.70
12329;DHT22;6230;52.390;10.256;2023-04-10T09:32:07;17.20;50.70
12329;DHT22;6230;52.390;10.256;2023-04-10T09:34:33;17.30;49.90
12329;DHT22;6230;52.390;10.256;2023-04-10T09:36:59;17.30;49.70
12329;DHT22;6230;52.390;10.256;2023-04-10T09:39:36;17.40;50.00
12329;DHT22;6230;52.390;10.256;2023-04-10T09:42:03;17.60;49.30
12329;DHT22;6230;52.390;10.256;2023-04-10T09:44:37;17.70;49.40
12329;DHT22;6230;52.390;10.256;2023-04-10T09:47:18;17.80;49.10
12329;DHT22;6230;52.390;10.256;2023-04-10T09:49:50;17.90;47.80
12329;DHT22;6230;52.390;10.256;2023-04-10T09:52:29;17.90;48.30
12329;DHT22;6230;52.390;10.256;2023-04-10T09:54:56;18.00;48.80
12329;DHT22;6230;52.390;10.256;2023-04-10T09:57:24;18.00;47.50
12329;DHT22;6230;52.390;10.256;2023-04-10T09:59:54;18.00;47.40
12329;DHT22;6230;52.390;10.256;2023-04-10T10:02:22;18.00;47.40
12329;DHT22;6230;52.390;10.256;2023-04-10T10:04:49;18.10;47.50
12329;DHT22;6230;52.390;10.256;2023-04-10T10:07:17;18.30;47.20
12329;DHT22;6230;52.390;10.256;2023-04-10T10:09:44;18.40;47.00
12329;DHT22;6230;52.390;10.256;2023-04-10T10:12:11;18.50;46.80
12329;DHT22;6230;52.390;10.256;2023-04-10T10:15:00;18.50;45.90
12329;DHT22;6230;52.390;10.256;2023-04-10T10:17:32;18.60;46.20
12329;DHT22;6230;52.390;10.256;2023-04-10T10:20:03;18.70;46.40
12329;DHT22;6230;52.390;10.256;2023-04-10T10:22:31;18.70;45.80
12329;DHT22;6230;52.390;10.256;2023-04-10T10:24:58;18.80;45.40
12329;DHT22;6230;52.390;10.256;2023-04-10T10:27:25;18.80;45.50
12329;DHT22;6230;52.390;10.256;2023-04-10T10:29:52;18.90;45.70
12329;DHT22;6230;52.390;10.256;2023-04-10T10:32:20;19.10;45.20
12329;DHT22;6230;52.390;10.256;2023-04-10T10:34:46;19.20;45.20
12329;DHT22;6230;52.390;10.256;2023-04-10T10:37:12;19.30;45.20
12329;DHT22;6230;52.390;10.256;2023-04-10T10:45:05;19.40;43.60
12329;DHT22;6230;52.390;10.256;2023-04-10T10:47:35;19.30;43.10
12329;DHT22;6230;52.390;10.256;2023-04-10T10:50:03;19.30;43.90
12329;DHT22;6230;52.390;10.256;2023-04-10T10:53:01;19.50;44.00
12329;DHT22;6230;52.390;10.256;2023-04-10T10:55:29;19.50;41.70
12329;DHT22;6230;52.390;10.256;2023-04-10T10:58:05;19.50;42.90
12329;DHT22;6230;52.390;10.256;2023-04-10T11:05:58;19.90;43.60
12329;DHT22;6230;52.390;10.256;2023-04-10T11:13:34;20.00;42.50
12329;DHT22;6230;52.390;10.256;2023-04-10T11:16:01;20.00;42.30
12329;DHT22;6230;52.390;10.256;2023-04-10T11:21:21;20.10;41.70
12329;DHT22;6230;52.390;10.256;2023-04-10T11:29:03;20.20;42.30
12329;DHT22;6230;52.390;10.256;2023-04-10T11:31:31;20.40;42.10
12329;DHT22;6230;52.390;10.256;2023-04-10T11:34:03;20.40;41.80
12329;DHT22;6230;52.390;10.256;2023-04-10T11:36:29;20.40;41.90
12329;DHT22;6230;52.390;10.256;2023-04-10T11:39:00;20.40;40.90
12329;DHT22;6230;52.390;10.256;2023-04-10T11:41:37;20.30;40.00
12329;DHT22;6230;52.390;10.256;2023-04-10T11:44:08;20.20;40.30
12329;DHT22;6230;52.390;10.256;2023-04-10T11:46:39;20.20;40.60
12329;DHT22;6230;52.390;10.256;2023-04-10T11:49:06;20.30;40.80
12329;DHT22;6230;52.390;10.256;2023-04-10T11:51:35;20.40;40.90
12329;DHT22;6230;52.390;10.256;2023-04-10T11:54:07;20.50;40.40
12329;DHT22;6230;52.390;10.256;2023-04-10T11:56:34;20.60;40.00
12329;DHT22;6230;52.390;10.256;2023-04-10T11:58:59;20.60;40.10
12329;DHT22;6230;52.390;10.256;2023-04-10T12:01:27;20.70;39.90
12329;DHT22;6230;52.390;10.256;2023-04-10T12:03:53;20.70;40.10
12329;DHT22;6230;52.390;10.256;2023-04-10T12:06:19;20.80;39.90
12329;DHT22;6230;52.390;10.256;2023-04-10T12:08:45;20.90;39.30
12329;DHT22;6230;52.390;10.256;2023-04-10T12:11:23;20.80;39.00
12329;DHT22;6230;52.390;10.256;2023-04-10T12:13:53;20.90;38.30
12329;DHT22;6230;52.390;10.256;2023-04-10T12:16:19;20.90;38.40
12329;DHT22;6230;52.390;10.256;2023-04-10T12:18:45;20.90;38.50
12329;DHT22;6230;52.390;10.256;2023-04-10T12:21:11;21.00;38.60
12329;DHT22;6230;52.390;10.256;2023-04-10T12:23:37;21.20;38.50
12329;DHT22;6230;52.390;10.256;2023-04-10T12:26:14;21.40;37.40
12329;DHT22;6230;52.390;10.256;2023-04-10T12:28:43;21.40;35.70
12329;DHT22;6230;52.390;10.256;2023-04-10T12:31:13;21.40;34.70
12329;DHT22;6230;52.390;10.256;2023-04-10T12:33:39;21.40;34.60
12329;DHT22;6230;52.390;10.256;2023-04-10T12:36:22;21.30;34.40
12329;DHT22;6230;52.390;10.256;2023-04-10T12:38:48;21.40;34.20
12329;DHT22;6230;52.390;10.256;2023-04-10T12:41:23;21.30;34.10
12329;DHT22;6230;52.390;10.256;2023-04-10T12:43:50;21.40;33.50
12329;DHT22;6230;52.390;10.256;2023-04-10T12:48:49;21.40;32.80
12329;DHT22;6230;52.390;10.256;2023-04-10T12:51:14;21.40;33.70
12329;DHT22;6230;52.390;10.256;2023-04-10T12:53:44;21.60;33.60
12329;DHT22;6230;52.390;10.256;2023-04-10T12:56:10;21.70;33.60
12329;DHT22;6230;52.390;10.256;2023-04-10T12:58:37;21.80;33.50
12329;DHT22;6230;52.390;10.256;2023-04-10T13:01:06;21.80;32.60
12329;DHT22;6230;52.390;10.256;2023-04-10T13:03:33;21.90;33.30
12329;DHT22;6230;52.390;10.256;2023-04-10T13:06:01;21.90;31.30
12329;DHT22;6230;52.390;10.256;2023-04-10T13:08:26;21.80;31.40
12329;DHT22;6230;52.390;10.256;2023-04-10T13:10:52;21.80;32.00
12329;DHT22;6230;52.390;10.256;2023-04-10T13:13:19;21.80;32.30
12329;DHT22;6230;52.390;10.256;2023-04-10T13:15:44;21.80;32.40
12329;DHT22;6230;52.390;10.256;2023-04-10T13:18:10;21.70;31.80
12329;DHT22;6230;52.390;10.256;2023-04-10T13:20:39;21.60;32.10
12329;DHT22;6230;52.390;10.256;2023-04-10T13:23:06;21.50;31.10
12329;DHT22;6230;52.390;10.256;2023-04-10T13:25:35;21.40;31.80
12329;DHT22;6230;52.390;10.256;2023-04-10T13:28:01;21.30;31.90
12329;DHT22;6230;52.390;10.256;2023-04-10T13:30:27;21.10;32.00
12329;DHT22;6230;52.390;10.256;2023-04-10T13:32:53;21.10;32.30
12329;DHT22;6230;52.390;10.256;2023-04-10T13:35:19;21.00;31.70
12329;DHT22;6230;52.390;10.256;2023-04-10T13:37:45;20.90;32.10
12329;DHT22;6230;52.390;10.256;2023-04-10T13:40:10;20.90;33.00
12329;DHT22;6230;52.390;10.256;2023-04-10T13:42:36;21.00;33.40
12329;DHT22;6230;52.390;10.256;2023-04-10T13:45:02;21.00;33.40
12329;DHT22;6230;52.390;10.256;2023-04-10T13:47:27;21.00;33.50
12329;DHT22;6230;52.390;10.256;2023-04-10T13:49:53;20.90;33.30
12329;DHT22;6230;52.390;10.256;2023-04-10T13:52:18;20.90;33.20
12329;DHT22;6230;52.390;10.256;2023-04-10T13:54:45;20.80;33.40
12329;DHT22;6230;52.390;10.256;2023-04-10T13:57:10;20.80;33.90
12329;DHT22;6230;52.390;10.256;2023-04-10T13:59:36;20.80;34.00
12329;DHT22;6230;52.390;10.256;2023-04-10T14:02:01;20.80;33.10
12329;DHT22;6230;52.390;10.256;2023-04-10T14:04:27;20.70;33.40
12329;DHT22;6230;52.390;10.256;2023-04-10T14:06:52;20.70;34.10
12329;DHT22;6230;52.390;10.256;2023-04-10T14:09:22;20.80;34.20
12329;DHT22;6230;52.390;10.256;2023-04-10T14:11:47;20.80;34.20
12329;DHT22;6230;52.390;10.256;2023-04-10T14:14:13;20.80;34.50
12329;DHT22;6230;52.390;10.256;2023-04-10T14:16:38;20.90;34.90
12329;DHT22;6230;52.390;10.256;2023-04-10T14:19:04;21.00;34.90
12329;DHT22;6230;52.390;10.256;2023-04-10T14:21:29;21.00;35.30
12329;DHT22;6230;52.390;10.256;2023-04-10T14:23:56;21.10;35.60
12329;DHT22;6230;52.390;10.256;2023-04-10T14:26:21;21.20;35.90
12329;DHT22;6230;52.390;10.256;2023-04-10T14:28:47;21.20;36.20
12329;DHT22;6230;52.390;10.256;2023-04-10T14:31:13;21.30;36.40
12329;DHT22;6230;52.390;10.256;2023-04-10T14:33:38;21.30;36.40
12329;DHT22;6230;52.390;10.256;2023-04-10T14:36:05;21.20;36.60
12329;DHT22;6230;52.390;10.256;2023-04-10T14:38:30;21.30;36.80
12329;DHT22;6230;52.390;10.256;2023-04-10T14:40:56;21.20;37.00
12329;DHT22;6230;52.390;10.256;2023-04-10T14:43:22;21.20;36.80
12329;DHT22;6230;52.390;10.256;2023-04-10T14:45:47;21.20;37.00
12329;DHT22;6230;52.390;10.256;2023-04-10T14:48:13;21.20;37.00
12329;DHT22;6230;52.390;10.256;2023-04-10T14:50:39;21.20;36.80
12329;DHT22;6230;52.390;10.256;2023-04-10T14:53:04;21.20;37.10
12329;DHT22;6230;52.390;10.256;2023-04-10T14:55:30;21.20;36.90
12329;DHT22;6230;52.390;10.256;2023-04-10T14:57:56;21.10;36.70
12329;DHT22;6230;52.390;10.256;2023-04-10T15:00:22;21.10;36.70
12329;DHT22;6230;52.390;10.256;2023-04-10T15:02:49;21.00;36.50
12329;DHT22;6230;52.390;10.256;2023-04-10T15:05:15;21.00;36.70
12329;DHT22;6230;52.390;10.256;2023-04-10T15:07:41;21.00;36.50
12329;DHT22;6230;52.390;10.256;2023-04-10T15:10:07;20.90;36.00
12329;DHT22;6230;52.390;10.256;2023-04-10T15:12:34;20.90;35.90
12329;DHT22;6230;52.390;10.256;2023-04-10T15:15:00;20.80;35.80
12329;DHT22;6230;52.390;10.256;2023-04-10T15:17:26;20.80;36.30
12329;DHT22;6230;52.390;10.256;2023-04-10T15:19:52;20.80;36.80
12329;DHT22;6230;52.390;10.256;2023-04-10T15:22:18;20.80;37.00
12329;DHT22;6230;52.390;10.256;2023-04-10T15:24:43;20.70;37.10
12329;DHT22;6230;52.390;10.256;2023-04-10T15:27:09;20.70;37.30
12329;DHT22;6230;52.390;10.256;2023-04-10T15:29:37;20.70;37.40
12329;DHT22;6230;52.390;10.256;2023-04-10T15:32:03;20.70;37.50
12329;DHT22;6230;52.390;10.256;2023-04-10T15:34:28;20.70;37.60
12329;DHT22;6230;52.390;10.256;2023-04-10T15:36:54;20.70;37.40
12329;DHT22;6230;52.390;10.256;2023-04-10T15:39:19;20.60;37.60
12329;DHT22;6230;52.390;10.256;2023-04-10T15:41:45;20.60;37.70
12329;DHT22;6230;52.390;10.256;2023-04-10T15:44:14;20.60;37.90
12329;DHT22;6230;52.390;10.256;2023-04-10T15:46:41;20.70;38.00
12329;DHT22;6230;52.390;10.256;2023-04-10T15:49:08;20.60;37.70
12329;DHT22;6230;52.390;10.256;2023-04-10T15:51:34;20.60;37.20
12329;DHT22;6230;52.390;10.256;2023-04-10T15:53:59;20.60;37.30
12329;DHT22;6230;52.390;10.256;2023-04-10T15:56:27;20.60;37.10
12329;DHT22;6230;52.390;10.256;2023-04-10T15:58:53;20.60;37.20
12329;DHT22;6230;52.390;10.256;2023-04-10T16:01:18;20.50;37.10
12329;DHT22;6230;52.390;10.256;2023-04-10T16:03:44;20.60;37.50
12329;DHT22;6230;52.390;10.256;2023-04-10T16:06:09;20.60;37.20
12329;DHT22;6230;52.390;10.256;2023-04-10T16:08:35;20.60;37.20
12329;DHT22;6230;52.390;10.256;2023-04-10T16:11:00;20.60;37.20